Eulenschwang, Germany

1:15 AM CET on January 18, 2018 (GMT +0100)
Altkirchner Straße | | Change Station

Elev 2237 ft 47.94 °N, 11.58 °E | Updated 19 minutes ago

Overcast
Overcast
32.0 °F
Feels Like 32 °F
N
1.2
Wind Variable Wind from South
Gusts 2.5 mph

Today
High -- | Low -- °F
--% Chance of Precip.
Yesterday
High -- | Low -- °F
Precip. -- in
Pressure 29.89 in
Visibility 6.2 miles
Clouds Few 1000 ft
Few 1500 ft
Mostly Cloudy 5500 ft
Windchill 32 °F
Dew Point 32 °F
Humidity 100%
Rainfall 0.38 in
Snow Depth Not available.
7:56 AM 4:52 PM
New Moon, 1% visible
METAR EDDM 172350Z 25015KT 9999 -SHSN FEW010 FEW015TCU BKN055 01/M02 Q1012 R88/290095 NOSIG
Pressure 29.89 in
Visibility 6.2 miles
Clouds Few 1000 ft
Few 1500 ft
Mostly Cloudy 5500 ft
Windchill 32 °F
Dew Point 32 °F
Humidity 100%
Rainfall 0.38 in
Snow Depth Not available.
7:56 AM 4:52 PM
New Moon, 1% visible
METAR EDDM 172350Z 25015KT 9999 -SHSN FEW010 FEW015TCU BKN055 01/M02 Q1012 R88/290095 NOSIG

Get Severe Weather Alerts

Thanks for signing up!

Be on the lookout for a verification email in your inbox.

You'll start receiving the daily forecast at 6 AM.

×

10-Day Weather Forecast

×

Almanac

Astronomy

Jan. 18, 2018 Rise Set
Actual Time
Civil Twilight
Nautical Twilight
Astronomical Twilight
Moon
Length of Visible Light
Length of Day
Tomorrow will be .
, % of the Moon is Illuminated

Today's Extremes

Country Highs Country Lows

Community

WunderPhotos

Category 6

Welcome to Category 6. This is the collective home for Weather Underground's featured writeups by Dr. Jeff Masters (right), Bob Henson (left), Chris Burt, and other regular contributors.

Nearby

Air Quality

  Air Quality AQ Index Pollutant
Not available.

Snow Depth

Station Depth Elevation

Earthquake Activity

City Distance Mag. Time & Date
Minimum magnitude displayed is 2.5.

Coastal Water Temperatures

Place Temperature

Stations

Nearby Weather Stations

Station Location Temp. Windchill Dew Point Humidity Wind Precip. Elev Updated Type